createdAt,value
2018-08-10T00:01:59.254Z,0.90
2018-08-10T00:04:28.690Z,0.90
2018-08-10T00:06:57.391Z,0.95
2018-08-10T00:09:26.145Z,0.93
2018-08-10T00:11:54.465Z,1.05
2018-08-10T00:14:22.801Z,1.10
2018-08-10T00:16:51.018Z,1.00
2018-08-10T00:19:20.038Z,1.10
2018-08-10T00:21:49.105Z,1.00
2018-08-10T00:24:17.355Z,1.10
2018-08-10T00:26:47.432Z,1.20
2018-08-10T00:29:15.702Z,0.97
2018-08-10T00:31:44.131Z,1.00
2018-08-10T00:34:12.676Z,1.00
2018-08-10T00:36:41.002Z,1.30
2018-08-10T00:39:11.759Z,1.37
2018-08-10T00:41:40.965Z,1.40
2018-08-10T00:44:11.933Z,1.30
2018-08-10T00:46:40.323Z,1.20
2018-08-10T00:49:08.695Z,1.20
2018-08-10T00:51:37.437Z,1.30
2018-08-10T00:54:15.919Z,1.30
2018-08-10T00:56:44.295Z,1.30
2018-08-10T00:59:14.382Z,1.40
2018-08-10T01:01:45.668Z,1.30
2018-08-10T01:04:14.101Z,1.10
2018-08-10T01:06:42.392Z,1.30
2018-08-10T01:09:12.348Z,1.10
2018-08-10T01:11:40.679Z,1.20
2018-08-10T01:14:09.309Z,1.10
2018-08-10T01:16:37.996Z,1.20
2018-08-10T01:19:06.445Z,1.02
2018-08-10T01:21:36.084Z,1.10
2018-08-10T01:24:04.379Z,1.20
2018-08-10T01:26:32.765Z,1.17
2018-08-10T01:29:01.222Z,1.40
2018-08-10T01:31:29.499Z,1.33
2018-08-10T01:33:57.840Z,1.07
2018-08-10T01:36:26.162Z,1.20
2018-08-10T01:38:54.501Z,1.50
2018-08-10T01:41:22.733Z,1.30
2018-08-10T01:43:51.034Z,1.27
2018-08-10T01:46:19.333Z,1.30
2018-08-10T01:48:47.658Z,1.23
2018-08-10T01:51:15.915Z,1.40
2018-08-10T01:53:44.202Z,1.32
2018-08-10T01:56:12.487Z,1.50
2018-08-10T01:58:40.812Z,1.30
2018-08-10T02:01:09.159Z,1.40
2018-08-10T02:03:37.452Z,1.47
2018-08-10T02:06:05.983Z,1.30
2018-08-10T02:08:34.281Z,1.30
2018-08-10T02:11:02.645Z,1.37
2018-08-10T02:13:31.026Z,1.20
2018-08-10T02:15:59.318Z,1.30
2018-08-10T02:18:27.811Z,1.20
2018-08-10T02:20:56.082Z,1.40
2018-08-10T02:23:24.369Z,1.70
2018-08-10T02:25:52.717Z,1.30
2018-08-10T02:28:20.972Z,1.45
2018-08-10T02:30:49.267Z,1.33
2018-08-10T02:33:17.571Z,1.30
2018-08-10T02:35:45.911Z,1.30
2018-08-10T02:38:14.244Z,1.67
2018-08-10T02:40:42.427Z,1.37
2018-08-10T02:43:10.661Z,1.50
2018-08-10T02:45:38.900Z,1.43
2018-08-10T02:48:07.485Z,1.50
2018-08-10T02:50:36.374Z,1.40
2018-08-10T02:53:04.700Z,1.40
2018-08-10T02:55:33.035Z,1.87
2018-08-10T02:58:01.288Z,1.10
2018-08-10T03:00:29.582Z,1.40
2018-08-10T03:02:57.839Z,1.60
2018-08-10T03:05:26.114Z,1.40
2018-08-10T03:07:54.356Z,1.20
2018-08-10T03:10:22.664Z,1.40
2018-08-10T03:12:50.960Z,1.43
2018-08-10T03:15:19.244Z,1.40
2018-08-10T03:17:47.613Z,1.40
2018-08-10T03:20:15.903Z,1.33
2018-08-10T03:22:44.346Z,1.50
2018-08-10T03:25:13.831Z,1.70
2018-08-10T03:27:42.928Z,1.62
2018-08-10T03:30:12.029Z,1.77
2018-08-10T03:32:40.366Z,1.70
2018-08-10T03:35:08.654Z,1.90
2018-08-10T03:37:37.377Z,1.80
2018-08-10T03:40:07.385Z,5.23
2018-08-10T03:42:35.619Z,2.30
2018-08-10T03:45:04.609Z,1.90
2018-08-10T03:47:32.893Z,1.60
2018-08-10T03:50:01.115Z,1.92
2018-08-10T03:52:29.377Z,1.93
2018-08-10T03:54:57.677Z,2.07
2018-08-10T03:57:25.942Z,2.08
2018-08-10T03:59:55.163Z,2.47
2018-08-10T04:02:23.421Z,2.10
2018-08-10T04:04:51.687Z,2.27
2018-08-10T04:07:20.043Z,1.90
2018-08-10T04:09:48.392Z,2.03
2018-08-10T04:12:16.679Z,2.02
2018-08-10T04:14:44.945Z,2.15
2018-08-10T04:17:23.292Z,2.20
2018-08-10T04:19:52.380Z,2.17
2018-08-10T04:22:20.763Z,2.20
2018-08-10T04:24:49.037Z,2.02
2018-08-10T04:27:17.312Z,2.25
2018-08-10T04:29:46.064Z,2.30
2018-08-10T04:32:14.263Z,2.50
2018-08-10T04:34:42.633Z,2.20
2018-08-10T04:37:10.912Z,2.60
2018-08-10T04:39:39.131Z,2.73
2018-08-10T04:42:07.402Z,3.40
2018-08-10T04:44:35.579Z,2.80
2018-08-10T04:47:03.801Z,2.37
2018-08-10T04:49:32.023Z,2.90
2018-08-10T04:52:00.263Z,2.72
2018-08-10T04:54:28.503Z,2.60
2018-08-10T04:56:56.711Z,2.87
2018-08-10T04:59:25.559Z,2.40
2018-08-10T05:01:53.814Z,2.87
2018-08-10T05:04:22.018Z,2.63
2018-08-10T05:06:50.339Z,2.92
2018-08-10T05:09:18.567Z,3.57
2018-08-10T05:11:47.136Z,3.10
2018-08-10T05:14:15.944Z,3.10
2018-08-10T05:16:44.395Z,2.90
2018-08-10T05:19:13.420Z,2.77
2018-08-10T05:21:41.721Z,3.43
2018-08-10T05:24:10.875Z,2.77
2018-08-10T05:26:39.315Z,3.30
2018-08-10T05:29:07.647Z,3.13
2018-08-10T05:31:36.280Z,3.33
2018-08-10T05:34:04.572Z,3.97
2018-08-10T05:36:32.825Z,3.67
2018-08-10T05:39:01.189Z,3.25
2018-08-10T05:41:29.574Z,3.23
2018-08-10T05:43:57.907Z,3.05
2018-08-10T05:46:26.179Z,2.75
2018-08-10T05:48:54.478Z,2.30
2018-08-10T05:51:22.689Z,2.35
2018-08-10T05:53:50.932Z,2.30
2018-08-10T05:56:19.120Z,2.10
2018-08-10T05:58:47.327Z,2.20
2018-08-10T06:01:15.551Z,2.30
2018-08-10T06:03:43.783Z,2.40
2018-08-10T06:06:12.003Z,2.20
2018-08-10T06:08:40.207Z,1.90
2018-08-10T06:11:08.477Z,2.10
2018-08-10T06:13:36.671Z,2.03
2018-08-10T06:16:04.870Z,2.15
2018-08-10T06:18:33.091Z,2.50
2018-08-10T06:21:01.974Z,1.90
2018-08-10T06:23:30.238Z,2.03
2018-08-10T06:25:58.459Z,2.25
2018-08-10T06:28:26.707Z,1.97
2018-08-10T06:30:55.934Z,2.10
2018-08-10T06:33:24.224Z,2.17
2018-08-10T06:35:53.328Z,1.90
2018-08-10T06:38:21.582Z,1.90
2018-08-10T06:40:49.773Z,1.98
2018-08-10T06:43:17.961Z,1.80
2018-08-10T06:45:47.034Z,1.97
2018-08-10T06:48:15.236Z,1.80
2018-08-10T06:50:43.431Z,1.90
2018-08-10T06:53:11.656Z,2.17
2018-08-10T06:55:39.848Z,1.60
2018-08-10T06:58:08.040Z,2.00
2018-08-10T07:00:36.332Z,1.80
2018-08-10T07:03:04.667Z,1.70
2018-08-10T07:05:33.147Z,2.27
2018-08-10T07:08:01.431Z,1.70
2018-08-10T07:10:30.956Z,2.00
2018-08-10T07:12:59.146Z,1.93
2018-08-10T07:15:27.325Z,1.90
2018-08-10T07:17:55.508Z,1.70
2018-08-10T07:20:23.726Z,1.67
2018-08-10T07:22:51.939Z,1.77
2018-08-10T07:25:20.144Z,2.12
2018-08-10T07:27:48.348Z,2.20
2018-08-10T07:30:16.546Z,2.20
2018-08-10T07:32:44.741Z,1.92
2018-08-10T07:35:12.941Z,1.97
2018-08-10T07:37:41.143Z,1.83
2018-08-10T07:40:09.335Z,2.10
2018-08-10T07:42:37.512Z,2.10
2018-08-10T07:45:05.838Z,1.90
2018-08-10T07:47:34.042Z,2.02
2018-08-10T07:50:02.262Z,2.00
2018-08-10T07:52:30.457Z,1.70
2018-08-10T07:54:58.742Z,1.90
2018-08-10T07:57:26.938Z,1.90
2018-08-10T07:59:55.161Z,1.87
2018-08-10T08:02:23.374Z,2.20
2018-08-10T08:04:51.587Z,1.90
2018-08-10T08:07:19.849Z,2.20
2018-08-10T08:09:48.036Z,2.00
2018-08-10T08:12:16.223Z,2.00
2018-08-10T08:14:44.433Z,1.80
2018-08-10T08:17:12.668Z,2.15
2018-08-10T08:19:40.939Z,1.70
2018-08-10T08:22:14.842Z,1.73
2018-08-10T08:24:43.326Z,1.63
2018-08-10T08:27:12.650Z,2.20
2018-08-10T08:29:40.866Z,1.70
2018-08-10T08:32:09.174Z,1.73
2018-08-10T08:34:37.438Z,2.20
2018-08-10T08:37:05.920Z,1.70
2018-08-10T08:40:47.481Z,1.60
2018-08-10T08:43:25.895Z,1.50
2018-08-10T08:46:10.469Z,1.50
2018-08-10T08:48:41.280Z,1.63
2018-08-10T08:51:11.736Z,1.40
2018-08-10T08:53:39.943Z,1.30
2018-08-10T08:56:11.487Z,1.40
2018-08-10T08:58:40.366Z,1.60
2018-08-10T09:01:08.945Z,1.40
2018-08-10T09:03:48.531Z,1.40
2018-08-10T09:06:16.751Z,1.50
2018-08-10T09:08:55.037Z,1.33
2018-08-10T09:11:23.232Z,1.30
2018-08-10T09:15:08.758Z,1.40
2018-08-10T09:17:37.072Z,1.30
2018-08-10T09:20:06.188Z,1.20
2018-08-10T09:22:34.403Z,1.30
2018-08-10T09:25:02.718Z,1.20
2018-08-10T09:27:30.946Z,1.30
2018-08-10T09:29:59.165Z,1.20
2018-08-10T09:32:27.413Z,1.20
2018-08-10T09:34:55.638Z,1.10
2018-08-10T09:37:23.928Z,0.97
2018-08-10T09:39:52.156Z,1.10
2018-08-10T09:42:20.400Z,1.10
2018-08-10T09:44:48.612Z,1.00
2018-08-10T09:47:17.405Z,1.10
2018-08-10T09:49:49.491Z,1.20
2018-08-10T09:52:17.736Z,1.00
2018-08-10T09:55:23.171Z,1.10
2018-08-10T09:57:54.772Z,1.10
2018-08-10T10:00:28.421Z,1.00
2018-08-10T10:03:02.037Z,1.10
2018-08-10T10:05:30.247Z,1.10
2018-08-10T10:07:58.432Z,0.93
2018-08-10T10:10:26.742Z,1.10
2018-08-10T10:12:55.382Z,1.10
2018-08-10T10:15:23.619Z,0.90
2018-08-10T10:17:52.011Z,0.90
2018-08-10T10:20:20.254Z,1.07
2018-08-10T10:22:49.147Z,1.10
2018-08-10T10:25:17.612Z,1.10
2018-08-10T10:27:45.939Z,0.90
2018-08-10T10:30:14.247Z,1.13
2018-08-10T10:32:42.910Z,1.00
2018-08-10T10:35:11.082Z,1.00
2018-08-10T10:37:39.403Z,0.90
2018-08-10T10:40:08.769Z,1.10
2018-08-10T10:42:36.963Z,1.10
2018-08-10T10:45:07.350Z,1.00
2018-08-10T10:47:35.543Z,1.03
2018-08-10T10:50:04.161Z,0.90
2018-08-10T10:52:32.376Z,1.00
2018-08-10T10:55:00.586Z,1.27
2018-08-10T10:57:28.821Z,1.00
2018-08-10T10:59:57.014Z,0.80
2018-08-10T11:02:25.262Z,0.80
2018-08-10T11:04:53.846Z,0.90
2018-08-10T11:07:22.051Z,0.88
2018-08-10T11:09:50.334Z,0.97
2018-08-10T11:12:18.574Z,0.83
2018-08-10T11:14:46.784Z,0.90
2018-08-10T11:17:15.471Z,1.00
2018-08-10T11:19:43.725Z,0.93
2018-08-10T11:22:12.606Z,0.90
2018-08-10T11:24:40.791Z,1.03
2018-08-10T11:27:08.986Z,0.90
2018-08-10T11:29:37.197Z,1.02
2018-08-10T11:32:05.428Z,0.70
2018-08-10T11:34:33.621Z,0.90
2018-08-10T11:37:01.930Z,0.85
2018-08-10T11:39:30.212Z,0.90
2018-08-10T11:41:58.426Z,0.80
2018-08-10T11:44:27.217Z,0.90
2018-08-10T11:46:55.464Z,0.83
2018-08-10T11:49:23.670Z,0.80
2018-08-10T11:51:51.881Z,0.90
2018-08-10T11:54:20.129Z,0.80
2018-08-10T11:56:48.393Z,0.90
2018-08-10T11:59:16.599Z,0.80
2018-08-10T12:01:44.830Z,0.73
2018-08-10T12:04:13.595Z,0.90
2018-08-10T12:06:41.863Z,0.93
2018-08-10T12:09:11.625Z,0.98
2018-08-10T12:11:40.331Z,1.00
2018-08-10T12:14:08.781Z,0.90
2018-08-10T12:16:37.039Z,0.83
2018-08-10T12:19:05.428Z,0.90
2018-08-10T12:21:33.611Z,0.90
2018-08-10T12:24:02.853Z,0.80
2018-08-10T12:26:31.031Z,0.90
2018-08-10T12:28:59.303Z,0.83
2018-08-10T12:31:27.530Z,0.90
2018-08-10T12:33:55.762Z,0.80
2018-08-10T12:36:23.982Z,0.80
2018-08-10T12:38:52.162Z,0.80
2018-08-10T12:41:20.356Z,0.77
2018-08-10T12:43:48.597Z,0.90
2018-08-10T12:46:16.987Z,0.90
2018-08-10T12:48:45.223Z,0.90
2018-08-10T12:51:13.538Z,1.00
2018-08-10T12:53:41.728Z,0.90
2018-08-10T12:56:09.925Z,0.90
2018-08-10T12:58:38.170Z,0.93
2018-08-10T13:01:06.421Z,0.85
2018-08-10T13:03:34.636Z,0.90
2018-08-10T13:06:02.906Z,1.00
2018-08-10T13:08:31.308Z,1.00
2018-08-10T13:10:59.477Z,0.77
2018-08-10T13:13:27.708Z,0.87
2018-08-10T13:15:55.912Z,2.10
2018-08-10T13:18:24.117Z,1.00
2018-08-10T13:20:52.300Z,0.90
2018-08-10T13:23:20.491Z,0.80
2018-08-10T13:25:48.705Z,1.07
2018-08-10T13:28:16.987Z,0.83
2018-08-10T13:30:45.245Z,1.00
2018-08-10T13:33:13.456Z,0.73
2018-08-10T13:35:41.651Z,0.90
2018-08-10T13:38:09.886Z,0.90
2018-08-10T13:40:38.378Z,0.90
2018-08-10T13:43:06.875Z,0.85
2018-08-10T13:45:35.135Z,0.70
2018-08-10T13:48:03.365Z,0.98
2018-08-10T13:50:31.628Z,1.00
2018-08-10T13:52:59.854Z,1.10
2018-08-10T13:55:28.109Z,0.90
2018-08-10T13:57:56.314Z,1.00
2018-08-10T14:00:25.579Z,0.90
2018-08-10T14:02:54.984Z,0.80
2018-08-10T14:05:23.837Z,0.93
2018-08-10T14:07:52.741Z,0.90
2018-08-10T14:10:20.954Z,1.00
2018-08-10T14:12:49.159Z,0.90
2018-08-10T14:15:17.384Z,0.90
2018-08-10T14:17:45.607Z,1.00
2018-08-10T14:20:14.176Z,0.90
2018-08-10T14:22:42.383Z,0.77
2018-08-10T14:25:11.120Z,0.90
2018-08-10T14:27:39.334Z,0.70
2018-08-10T14:30:10.069Z,0.80
2018-08-10T14:32:38.584Z,0.90
2018-08-10T14:35:07.376Z,0.90
2018-08-10T14:37:36.958Z,0.78
2018-08-10T14:40:07.079Z,0.90
2018-08-10T14:42:35.609Z,0.80
2018-08-10T14:45:04.538Z,0.90
2018-08-10T14:47:32.804Z,0.90
2018-08-10T14:50:01.083Z,0.80
2018-08-10T14:52:29.265Z,0.90
2018-08-10T14:54:57.481Z,0.90
2018-08-10T14:57:25.707Z,0.90
2018-08-10T14:59:53.940Z,0.90
2018-08-10T15:02:22.251Z,0.87
2018-08-10T15:04:50.553Z,0.80
2018-08-10T15:07:18.801Z,0.90
2018-08-10T15:09:47.050Z,1.00
2018-08-10T15:12:15.456Z,0.97
2018-08-10T15:14:43.703Z,0.80
2018-08-10T15:17:11.895Z,0.80
2018-08-10T15:19:41.132Z,1.10
2018-08-10T15:22:09.354Z,0.75
2018-08-10T15:24:37.715Z,0.90
2018-08-10T15:27:05.936Z,1.27
2018-08-10T15:29:34.208Z,0.90
2018-08-10T15:32:02.480Z,0.90
2018-08-10T15:34:30.650Z,1.07
2018-08-10T15:37:38.119Z,0.90
2018-08-10T15:40:07.757Z,0.82
2018-08-10T15:42:36.105Z,0.90
2018-08-10T15:45:06.591Z,0.90
2018-08-10T15:47:34.930Z,1.00
2018-08-10T15:50:03.172Z,0.95
2018-08-10T15:52:32.326Z,0.80
2018-08-10T15:55:00.541Z,1.10
2018-08-10T15:57:28.861Z,0.90
2018-08-10T15:59:57.042Z,0.93
2018-08-10T16:02:25.266Z,0.80
2018-08-10T16:04:53.517Z,1.00
2018-08-10T16:07:21.782Z,0.80
2018-08-10T16:09:50.027Z,1.00
2018-08-10T16:12:18.318Z,0.90
2018-08-10T16:14:46.550Z,0.90
2018-08-10T16:17:14.766Z,0.80
2018-08-10T16:19:44.316Z,0.87
2018-08-10T16:22:13.248Z,1.07
2018-08-10T16:24:41.482Z,0.90
2018-08-10T16:27:10.323Z,0.90
2018-08-10T16:29:38.579Z,0.90
2018-08-10T16:32:06.820Z,0.90
2018-08-10T16:34:35.102Z,0.90
2018-08-10T16:37:03.442Z,0.90
2018-08-10T16:39:31.684Z,0.88
2018-08-10T16:41:59.893Z,1.00
2018-08-10T16:44:28.170Z,0.90
2018-08-10T16:46:56.388Z,1.02
2018-08-10T16:49:24.826Z,1.20
2018-08-10T16:51:53.078Z,2.22
2018-08-10T16:54:21.316Z,1.30
2018-08-10T16:56:49.686Z,1.10
2018-08-10T16:59:17.932Z,1.30
2018-08-10T17:01:46.159Z,0.90
2018-08-10T17:04:14.443Z,1.00
2018-08-10T17:06:42.895Z,1.40
2018-08-10T17:09:11.542Z,1.03
2018-08-10T17:11:39.826Z,1.72
2018-08-10T17:14:08.695Z,2.07
2018-08-10T17:16:36.949Z,1.73
2018-08-10T17:19:05.218Z,1.27
2018-08-10T17:21:33.423Z,1.82
2018-08-10T17:24:01.700Z,1.53
2018-08-10T17:26:29.929Z,1.10
2018-08-10T17:28:58.095Z,1.10
2018-08-10T17:31:26.304Z,1.17
2018-08-10T17:33:54.658Z,1.40
2018-08-10T17:36:22.973Z,1.10
2018-08-10T17:38:51.424Z,1.20
2018-08-10T17:41:19.771Z,1.98
2018-08-10T17:43:48.027Z,1.50
2018-08-10T17:46:16.303Z,1.20
2018-08-10T17:48:45.236Z,1.20
2018-08-10T17:51:13.481Z,1.20
2018-08-10T17:53:42.005Z,1.90
2018-08-10T17:56:10.236Z,1.67
2018-08-10T17:58:38.517Z,1.40
2018-08-10T18:01:06.750Z,1.20
2018-08-10T18:03:35.002Z,1.10
2018-08-10T18:06:03.447Z,1.10
2018-08-10T18:08:32.432Z,1.17
2018-08-10T18:11:00.673Z,0.97
2018-08-10T18:13:29.530Z,1.07
2018-08-10T18:15:57.818Z,1.10
2018-08-10T18:18:26.110Z,1.02
2018-08-10T18:20:54.528Z,1.20
2018-08-10T18:23:22.817Z,1.10
2018-08-10T18:25:51.179Z,1.00
2018-08-10T18:28:19.675Z,1.00
2018-08-10T18:30:48.112Z,1.20
2018-08-10T18:33:16.413Z,0.85
2018-08-10T18:35:44.992Z,1.10
2018-08-10T18:38:13.763Z,1.10
2018-08-10T18:40:42.010Z,1.00
2018-08-10T18:43:10.289Z,0.90
2018-08-10T18:45:38.567Z,0.90
2018-08-10T18:48:06.876Z,1.10
2018-08-10T18:50:35.249Z,1.00
2018-08-10T18:53:03.661Z,1.20
2018-08-10T18:55:31.883Z,1.00
2018-08-10T18:58:00.459Z,1.00
2018-08-10T19:00:28.747Z,1.07
2018-08-10T19:02:56.952Z,1.10
2018-08-10T19:05:25.207Z,1.00
2018-08-10T19:07:53.483Z,0.80
2018-08-10T19:10:23.554Z,1.00
2018-08-10T19:12:51.770Z,0.83
2018-08-10T19:15:19.997Z,1.00
2018-08-10T19:17:48.354Z,0.90
2018-08-10T19:20:17.145Z,0.90
2018-08-10T19:22:46.104Z,1.20
2018-08-10T19:25:15.056Z,1.00
2018-08-10T19:27:43.438Z,1.00
2018-08-10T19:30:18.217Z,1.10
2018-08-10T19:32:47.413Z,1.20
2018-08-10T19:35:16.210Z,1.23
2018-08-10T19:37:44.502Z,4.67
2018-08-10T19:40:14.210Z,1.07
2018-08-10T19:42:42.561Z,1.00
2018-08-10T19:45:12.208Z,1.12
2018-08-10T19:47:40.683Z,1.57
2018-08-10T19:50:10.271Z,1.10
2018-08-10T19:52:38.579Z,1.03
2018-08-10T19:55:08.756Z,0.90
2018-08-10T19:57:37.019Z,0.90
2018-08-10T20:00:06.549Z,1.20
2018-08-10T20:02:35.029Z,1.10
2018-08-10T20:05:03.414Z,1.00
2018-08-10T20:07:31.665Z,1.03
2018-08-10T20:10:00.092Z,1.10
2018-08-10T20:12:28.332Z,1.20
2018-08-10T20:14:56.632Z,1.10
2018-08-10T20:17:24.859Z,1.07
2018-08-10T20:19:53.080Z,1.10
2018-08-10T20:22:21.354Z,1.10
2018-08-10T20:24:50.207Z,1.17
2018-08-10T20:27:18.606Z,1.40
2018-08-10T20:29:46.887Z,1.00
2018-08-10T20:32:15.265Z,1.17
2018-08-10T20:34:43.559Z,1.10
2018-08-10T20:37:11.795Z,1.20
2018-08-10T20:39:40.212Z,1.20
2018-08-10T20:42:08.671Z,1.00
2018-08-10T20:44:36.943Z,1.10
2018-08-10T20:47:05.283Z,1.20
2018-08-10T20:49:33.536Z,1.00
2018-08-10T20:52:01.795Z,1.20
2018-08-10T20:54:29.976Z,1.10
2018-08-10T20:56:58.189Z,1.10
2018-08-10T20:59:26.408Z,1.23
2018-08-10T21:01:54.650Z,1.27
2018-08-10T21:04:22.919Z,1.40
2018-08-10T21:06:51.124Z,1.23
2018-08-10T21:09:19.364Z,1.00
2018-08-10T21:11:47.577Z,1.20
2018-08-10T21:14:15.866Z,1.33
2018-08-10T21:16:44.093Z,1.37
2018-08-10T21:19:12.377Z,1.32
2018-08-10T21:21:40.619Z,1.07
2018-08-10T21:24:08.892Z,1.20
2018-08-10T21:26:37.172Z,1.20
2018-08-10T21:29:05.499Z,1.40
2018-08-10T21:31:33.720Z,1.20
2018-08-10T21:34:01.984Z,1.72
2018-08-10T21:36:30.226Z,1.30
2018-08-10T21:38:58.888Z,1.30
2018-08-10T21:41:27.224Z,1.20
2018-08-10T21:43:55.514Z,1.17
2018-08-10T21:46:23.767Z,1.30
2018-08-10T21:48:52.280Z,1.27
2018-08-10T21:51:21.752Z,1.20
2018-08-10T21:53:50.050Z,1.20
2018-08-10T21:56:18.484Z,1.20
2018-08-10T21:58:46.767Z,1.40
2018-08-10T22:01:15.075Z,1.27
2018-08-10T22:03:43.531Z,1.50
2018-08-10T22:06:11.928Z,1.30
2018-08-10T22:08:40.289Z,1.35
2018-08-10T22:11:08.668Z,1.20
2018-08-10T22:13:42.339Z,1.22
2018-08-10T22:16:15.996Z,1.40
2018-08-10T22:18:49.813Z,1.50
2018-08-10T22:21:18.050Z,1.33
2018-08-10T22:23:46.333Z,1.63
2018-08-10T22:26:14.733Z,1.60
2018-08-10T22:28:43.273Z,1.40
2018-08-10T22:31:11.588Z,1.35
2018-08-10T22:33:39.979Z,1.60
2018-08-10T22:36:08.355Z,1.42
2018-08-10T22:38:36.618Z,1.47
2018-08-10T22:41:04.965Z,1.50
2018-08-10T22:43:33.427Z,1.40
2018-08-10T22:46:01.715Z,1.30
2018-08-10T22:48:29.911Z,1.37
2018-08-10T22:50:58.179Z,1.70
2018-08-10T22:53:26.512Z,1.50
2018-08-10T22:55:54.867Z,1.45
2018-08-10T22:58:23.288Z,1.40
2018-08-10T23:00:51.538Z,1.30
2018-08-10T23:03:19.983Z,1.50
2018-08-10T23:05:48.193Z,1.40
2018-08-10T23:08:16.660Z,1.40
2018-08-10T23:10:45.105Z,1.40
2018-08-10T23:13:13.537Z,1.30
2018-08-10T23:15:42.368Z,1.35
2018-08-10T23:18:10.846Z,1.70
2018-08-10T23:20:39.220Z,1.40
2018-08-10T23:23:07.574Z,1.22
2018-08-10T23:25:35.891Z,1.40
2018-08-10T23:28:04.273Z,1.60
2018-08-10T23:30:32.666Z,1.40
2018-08-10T23:33:00.908Z,1.83
2018-08-10T23:35:29.283Z,1.53
2018-08-10T23:37:57.792Z,1.47
2018-08-10T23:40:26.111Z,1.50
2018-08-10T23:42:54.403Z,1.30
2018-08-10T23:45:22.785Z,1.60
2018-08-10T23:47:51.127Z,1.65
2018-08-10T23:50:19.447Z,1.40
2018-08-10T23:52:47.919Z,1.60
2018-08-10T23:55:18.064Z,1.60
2018-08-10T23:57:46.955Z,1.50
